Time;durP1;ratioP1;P1;durP2;ratioP2;P2;SDS_P1;SDS_P2;PMS_P1;PMS_P2;Temp;Humidity;BMP_temperature;BMP_pressure;BME280_temperature;BME280_humidity;BME280_pressure;Samples;Min_cycle;Max_cycle;Signal;HPM_P1;HPM_P2
2023/06/01 00:00:31;;;;;;;27.67;13.02;;;;;;;12.39;100.00;102417.72;5078457;28;20035;-46
2023/06/01 00:02:56;;;;;;;26.65;11.75;;;;;;;12.36;100.00;102415.34;5087773;28;20032;-43
2023/06/01 00:05:22;;;;;;;31.23;12.95;;;;;;;12.34;100.00;102417.34;5080868;28;20111;-44
2023/06/01 00:07:47;;;;;;;32.22;12.88;;;;;;;12.39;100.00;102427.69;5076063;28;20526;-43
2023/06/01 00:10:13;;;;;;;27.98;12.50;;;;;;;12.41;100.00;102421.13;5079751;28;20425;-45
2023/06/01 00:12:38;;;;;;;29.83;12.80;;;;;;;12.40;100.00;102423.97;5073420;28;20043;-45
2023/06/01 00:15:04;;;;;;;27.35;12.60;;;;;;;12.44;100.00;102428.06;5092303;28;20032;-47
2023/06/01 00:17:30;;;;;;;27.20;12.73;;;;;;;12.47;100.00;102420.50;5074780;28;20036;-46
2023/06/01 00:19:56;;;;;;;24.40;13.07;;;;;;;12.48;100.00;102422.22;5080004;28;20103;-46
2023/06/01 00:22:23;;;;;;;30.27;13.73;;;;;;;12.45;100.00;102425.22;5083201;28;20389;-45
2023/06/01 00:24:49;;;;;;;30.30;13.10;;;;;;;12.47;100.00;102425.91;5079780;28;20054;-44
2023/06/01 00:27:14;;;;;;;25.10;12.48;;;;;;;12.49;100.00;102423.06;5076099;28;20314;-45
2023/06/01 00:29:40;;;;;;;30.25;12.77;;;;;;;12.47;100.00;102415.09;5084975;28;20099;-44
2023/06/01 00:32:06;;;;;;;27.10;13.10;;;;;;;12.47;100.00;102417.81;5073221;28;20032;-45
2023/06/01 00:34:31;;;;;;;26.77;12.52;;;;;;;12.45;100.00;102417.13;5079806;28;20036;-43
2023/06/01 00:36:56;;;;;;;27.10;11.98;;;;;;;12.33;100.00;102407.56;5081962;28;20036;-44
2023/06/01 00:39:22;;;;;;;25.08;11.85;;;;;;;12.24;100.00;102403.09;5076684;28;20039;-46
2023/06/01 00:41:47;;;;;;;26.67;11.65;;;;;;;12.17;100.00;102408.25;5088290;28;20102;-47
2023/06/01 00:44:13;;;;;;;27.95;11.23;;;;;;;12.13;100.00;102406.88;5090812;28;20024;-45
2023/06/01 00:46:38;;;;;;;25.27;11.25;;;;;;;12.07;100.00;102411.03;5077956;28;20104;-47
2023/06/01 00:49:03;;;;;;;26.17;11.98;;;;;;;12.11;100.00;102414.25;5085081;28;20028;-47
2023/06/01 00:51:29;;;;;;;25.42;11.70;;;;;;;12.13;100.00;102419.50;5089160;28;20039;-46
2023/06/01 00:53:55;;;;;;;29.92;11.38;;;;;;;12.18;100.00;102406.41;5078024;28;20086;-44
2023/06/01 00:56:21;;;;;;;25.55;12.13;;;;;;;12.26;100.00;102417.28;5084242;28;20048;-45
2023/06/01 00:58:47;;;;;;;21.13;9.65;;;;;;;12.30;100.00;102413.28;5081092;28;20461;-47
2023/06/01 01:01:18;;;;;;;24.73;10.60;;;;;;;12.35;100.00;102415.50;5072662;28;20041;-45
2023/06/01 01:03:46;;;;;;;27.45;10.75;;;;;;;12.39;100.00;102417.72;5071242;28;20432;-47
2023/06/01 01:06:25;;;;;;;20.95;9.30;;;;;;;12.43;100.00;102411.03;5079003;28;20054;-46
2023/06/01 01:09:14;;;;;;;20.80;9.55;;;;;;;12.42;100.00;102411.19;5076514;28;20036;-46
2023/06/01 01:11:41;;;;;;;17.27;8.65;;;;;;;12.42;100.00;102412.03;5068039;28;20042;-46
2023/06/01 01:14:25;;;;;;;17.95;8.27;;;;;;;12.43;100.00;102408.34;5090490;28;20058;-46
2023/06/01 01:17:03;;;;;;;15.98;8.25;;;;;;;12.42;100.00;102409.31;5080786;28;20032;-44
2023/06/01 01:19:41;;;;;;;24.67;9.55;;;;;;;12.39;100.00;102412.34;5084351;28;20118;-44
2023/06/01 01:22:15;;;;;;;20.60;8.88;;;;;;;12.26;100.00;102396.53;5088507;28;20042;-45
2023/06/01 01:25:05;;;;;;;19.48;9.30;;;;;;;12.23;100.00;102402.25;5088063;28;20088;-48
2023/06/01 01:28:18;;;;;;;25.45;9.48;;;;;;;12.22;100.00;102402.41;5082227;28;20032;-48
2023/06/01 01:30:45;;;;;;;19.83;9.63;;;;;;;12.22;100.00;102397.00;5023369;28;20518;-47
2023/06/01 01:33:11;;;;;;;22.73;9.82;;;;;;;12.21;100.00;102398.00;5072670;28;20039;-47
2023/06/01 01:35:37;;;;;;;27.65;10.98;;;;;;;12.07;100.00;102399.38;5071258;28;20032;-47
2023/06/01 01:38:02;;;;;;;17.48;9.32;;;;;;;11.87;100.00;102412.16;5086959;28;20024;-46
2023/06/01 01:40:27;;;;;;;24.08;9.75;;;;;;;11.80;100.00;102405.66;5084863;28;20036;-45
2023/06/01 01:42:53;;;;;;;24.35;10.23;;;;;;;11.79;100.00;102409.34;5086102;28;20028;-45
2023/06/01 01:45:19;;;;;;;23.02;10.18;;;;;;;11.71;100.00;102409.25;5079678;28;20467;-48
2023/06/01 01:47:54;;;;;;;21.65;10.85;;;;;;;11.71;100.00;102411.94;5071309;28;20494;-46
2023/06/01 01:50:21;;;;;;;19.60;9.98;;;;;;;11.69;100.00;102414.81;5072821;28;20033;-45
2023/06/01 01:52:47;;;;;;;21.40;10.63;;;;;;;11.71;100.00;102411.94;5079255;28;20098;-47
2023/06/01 01:55:15;;;;;;;24.42;10.82;;;;;;;11.76;100.00;102415.03;5078124;28;20605;-47
2023/06/01 01:57:41;;;;;;;18.55;10.18;;;;;;;11.77;100.00;102411.34;5092000;28;20143;-44
2023/06/01 02:00:08;;;;;;;17.73;10.07;;;;;;;11.75;100.00;102413.34;5084069;28;20066;-44
2023/06/01 02:02:33;;;;;;;22.90;10.45;;;;;;;11.74;100.00;102392.75;5077842;28;20064;-45
2023/06/01 02:04:58;;;;;;;25.23;10.38;;;;;;;11.73;100.00;102396.47;5078245;28;20056;-45
2023/06/01 02:07:24;;;;;;;25.30;10.93;;;;;;;11.75;100.00;102405.25;5088769;28;20359;-46
2023/06/01 02:09:49;;;;;;;21.55;10.38;;;;;;;11.72;100.00;102392.09;5089201;28;20027;-45
2023/06/01 02:12:15;;;;;;;21.10;11.32;;;;;;;11.72;100.00;102403.72;5090717;28;20027;-45
2023/06/01 02:14:40;;;;;;;23.40;10.68;;;;;;;11.68;100.00;102396.06;5089913;28;20028;-46
2023/06/01 02:17:07;;;;;;;24.08;10.98;;;;;;;11.70;100.00;102389.53;5089629;28;20032;-46
2023/06/01 02:19:32;;;;;;;24.00;10.32;;;;;;;11.75;100.00;102391.78;5087227;28;20037;-44
2023/06/01 02:21:58;;;;;;;25.42;10.35;;;;;;;11.82;100.00;102392.84;5069634;28;20183;-44
2023/06/01 02:24:23;;;;;;;18.60;10.73;;;;;;;11.86;100.00;102392.44;5076411;28;20024;-44
2023/06/01 02:26:51;;;;;;;27.27;10.75;;;;;;;11.92;100.00;102387.44;5089267;28;20071;-44
2023/06/01 02:29:19;;;;;;;21.80;11.70;;;;;;;11.93;100.00;102384.59;5080259;28;20153;-46
2023/06/01 02:31:45;;;;;;;21.85;10.45;;;;;;;11.92;100.00;102382.88;5081946;28;20028;-46
2023/06/01 02:34:10;;;;;;;19.00;9.80;;;;;;;11.89;100.00;102382.34;5080640;28;20258;-49
2023/06/01 02:36:36;;;;;;;23.48;10.50;;;;;;;11.90;100.00;102389.41;5083242;28;20071;-46
2023/06/01 02:39:01;;;;;;;22.02;9.88;;;;;;;11.89;100.00;102393.13;5082880;28;20100;-44
2023/06/01 02:41:27;;;;;;;25.88;11.00;;;;;;;11.86;100.00;102391.59;5082581;28;20043;-46
2023/06/01 02:43:52;;;;;;;18.38;9.90;;;;;;;11.88;100.00;102391.44;5081556;28;20321;-46
2023/06/01 02:46:18;;;;;;;22.52;9.73;;;;;;;11.87;100.00;102382.47;5082126;28;20513;-46
2023/06/01 02:48:44;;;;;;;21.92;9.75;;;;;;;11.90;100.00;102374.09;5076210;28;20040;-48
2023/06/01 02:51:09;;;;;;;21.40;9.75;;;;;;;11.89;100.00;102383.19;5080866;28;20058;-47
2023/06/01 02:53:35;;;;;;;31.45;11.20;;;;;;;11.89;100.00;102380.50;5070815;28;20470;-46
2023/06/01 02:56:00;;;;;;;24.77;9.68;;;;;;;11.88;100.00;102378.81;5085159;28;20067;-49
2023/06/01 02:58:29;;;;;;;26.42;11.07;;;;;;;11.87;100.00;102379.78;5088368;28;20408;-45
2023/06/01 03:00:55;;;;;;;21.10;9.82;;;;;;;11.90;100.00;102374.09;5084293;28;20055;-46
2023/06/01 03:03:20;;;;;;;20.13;9.68;;;;;;;11.90;100.00;102376.81;5081845;28;20074;-46
2023/06/01 03:05:47;;;;;;;21.15;9.57;;;;;;;11.89;100.00;102382.34;5079484;28;20546;-45
2023/06/01 03:08:13;;;;;;;24.52;10.07;;;;;;;11.83;100.00;102378.38;5080032;28;20039;-43
2023/06/01 03:10:38;;;;;;;16.00;9.75;;;;;;;11.85;100.00;102376.38;5081890;28;20107;-44
2023/06/01 03:13:04;;;;;;;22.63;10.00;;;;;;;11.83;100.00;102378.38;5089552;28;20024;-45
2023/06/01 03:15:29;;;;;;;18.80;10.30;;;;;;;11.83;100.00;102386.47;5085355;28;20032;-45
2023/06/01 03:17:55;;;;;;;18.88;9.77;;;;;;;11.87;100.00;102387.88;5077616;28;20401;-47
2023/06/01 03:20:20;;;;;;;28.65;10.48;;;;;;;11.89;100.00;102383.19;5079816;28;20410;-44
2023/06/01 03:22:46;;;;;;;22.85;9.65;;;;;;;11.92;100.00;102387.44;5079390;28;20038;-47
2023/06/01 03:25:13;;;;;;;21.75;10.07;;;;;;;11.91;100.00;102385.75;5070698;28;20099;-47
2023/06/01 03:27:39;;;;;;;22.63;10.63;;;;;;;11.89;100.00;102388.56;5077865;28;20083;-47
2023/06/01 03:30:09;;;;;;;25.95;10.00;;;;;;;11.83;100.00;102381.91;5070948;28;20060;-46
2023/06/01 03:32:38;;;;;;;23.65;9.98;;;;;;;11.84;100.00;102382.75;5078042;28;20021;-46
2023/06/01 03:35:07;;;;;;;24.73;10.32;;;;;;;11.81;100.00;102392.00;5076210;28;20482;-46
2023/06/01 03:37:33;;;;;;;23.55;10.48;;;;;;;11.84;100.00;102390.84;5087322;28;20024;-48
2023/06/01 03:39:58;;;;;;;23.42;10.65;;;;;;;11.82;100.00;102388.31;5077744;28;20427;-49
2023/06/01 03:42:23;;;;;;;24.67;11.23;;;;;;;11.82;100.00;102382.94;5076496;28;20020;-47
2023/06/01 03:44:49;;;;;;;24.90;11.02;;;;;;;11.80;100.00;102394.88;5088506;28;20032;-45
2023/06/01 03:47:14;;;;;;;30.33;12.77;;;;;;;11.77;100.00;102381.66;5080010;28;20021;-47
2023/06/01 03:49:40;;;;;;;23.20;11.02;;;;;;;11.76;100.00;102377.28;5082313;28;20081;-46
2023/06/01 03:52:06;;;;;;;26.23;11.05;;;;;;;11.70;100.00;102383.28;5083120;28;20359;-48
2023/06/01 03:54:31;;;;;;;25.25;10.52;;;;;;;11.60;100.00;102388.75;5081497;28;20073;-46
2023/06/01 03:56:57;;;;;;;21.60;10.68;;;;;;;11.61;100.00;102391.28;5081280;28;20082;-46
2023/06/01 03:59:22;;;;;;;26.85;11.25;;;;;;;11.61;100.00;102387.72;5078620;28;20145;-46
2023/06/01 04:01:49;;;;;;;18.58;10.45;;;;;;;11.62;100.00;102382.19;5087913;28;20430;-45
2023/06/01 04:04:16;;;;;;;24.30;10.55;;;;;;;11.58;100.00;102380.78;5088623;28;20104;-46
2023/06/01 04:06:44;;;;;;;22.23;10.15;;;;;;;11.57;100.00;102389.03;5074593;28;20033;-48
2023/06/01 04:09:10;;;;;;;23.73;9.52;;;;;;;11.64;100.00;102390.16;5083855;28;20034;-47
2023/06/01 04:11:39;;;;;;;28.38;10.75;;;;;;;11.61;100.00;102391.28;5073910;28;20489;-46
2023/06/01 04:14:05;;;;;;;25.00;10.35;;;;;;;11.59;100.00;102390.59;5088821;28;20486;-49
2023/06/01 04:16:30;;;;;;;23.05;10.52;;;;;;;11.63;100.00;102393.81;5078531;28;20032;-46
2023/06/01 04:18:56;;;;;;;19.17;9.90;;;;;;;11.56;100.00;102384.66;5078073;28;20036;-44
2023/06/01 04:21:22;;;;;;;22.25;9.57;;;;;;;11.54;100.00;102390.19;5081401;28;20058;-45
2023/06/01 04:23:48;;;;;;;22.83;9.90;;;;;;;11.60;100.00;102383.34;5077349;28;20068;-46
2023/06/01 04:26:14;;;;;;;29.42;9.98;;;;;;;11.63;100.00;102389.28;5081861;28;20048;-47
2023/06/01 04:28:43;;;;;;;20.63;9.52;;;;;;;11.71;100.00;102390.38;5071380;28;20378;-44
2023/06/01 04:31:19;;;;;;;20.65;9.98;;;;;;;11.79;100.00;102395.84;5081201;28;20016;-46
2023/06/01 04:33:45;;;;;;;24.92;10.98;;;;;;;11.84;100.00;102380.91;5079158;28;20482;-44
2023/06/01 04:36:12;;;;;;;26.50;9.85;;;;;;;11.85;100.00;102379.09;5072341;28;20097;-47
2023/06/01 04:38:41;;;;;;;25.17;10.18;;;;;;;11.82;100.00;102384.75;5053710;28;20063;-44
2023/06/01 04:41:07;;;;;;;24.80;9.63;;;;;;;11.83;100.00;102386.47;5072667;28;20158;-42
2023/06/01 04:43:32;;;;;;;23.58;10.77;;;;;;;11.89;100.00;102383.19;5071860;28;20507;-47
2023/06/01 04:46:03;;;;;;;26.52;10.82;;;;;;;11.96;100.00;102388.84;5074272;28;20222;-45
2023/06/01 04:48:30;;;;;;;21.35;10.45;;;;;;;12.00;100.00;102380.25;5082503;28;20040;-48
2023/06/01 04:50:57;;;;;;;21.83;10.20;;;;;;;12.01;100.00;102391.91;5082325;28;20035;-46
2023/06/01 04:53:22;;;;;;;21.98;9.73;;;;;;;11.99;100.00;102394.75;5091265;28;20269;-45
2023/06/01 04:55:50;;;;;;;23.67;10.10;;;;;;;12.10;100.00;102392.84;5091341;28;20597;-44
2023/06/01 04:58:15;;;;;;;21.63;10.10;;;;;;;12.22;100.00;102389.75;5090235;28;20139;-46
2023/06/01 05:00:40;;;;;;;26.10;10.45;;;;;;;12.26;100.00;102390.28;5086677;28;20103;-45
2023/06/01 05:03:06;;;;;;;23.48;10.05;;;;;;;12.29;100.00;102395.38;5084473;28;20582;-45
2023/06/01 05:05:31;;;;;;;22.40;10.20;;;;;;;12.34;100.00;102387.66;5070006;28;20525;-48
2023/06/01 05:07:57;;;;;;;23.45;11.00;;;;;;;12.40;100.00;102388.88;5076249;28;20032;-47
2023/06/01 05:10:22;;;;;;;21.15;10.20;;;;;;;12.42;100.00;102385.00;5075231;28;20024;-45
2023/06/01 05:12:48;;;;;;;23.42;9.93;;;;;;;12.46;100.00;102386.41;5072813;28;20051;-47
2023/06/01 05:15:13;;;;;;;29.45;10.77;;;;;;;12.48;100.00;102387.13;5073583;28;20040;-47
2023/06/01 05:17:39;;;;;;;31.83;11.93;;;;;;;12.52;100.00;102385.78;5091816;28;20540;-48
2023/06/01 05:20:08;;;;;;;31.65;10.52;;;;;;;12.53;100.00;102389.31;5093084;28;20035;-45
2023/06/01 05:22:33;;;;;;;25.63;10.45;;;;;;;12.56;100.00;102386.31;5090792;28;20375;-45
2023/06/01 05:25:00;;;;;;;23.10;9.82;;;;;;;12.55;100.00;102381.06;5091263;28;20027;-46
2023/06/01 05:27:26;;;;;;;22.98;10.88;;;;;;;12.57;100.00;102387.16;5092986;28;20035;-47
2023/06/01 05:29:51;;;;;;;31.27;11.45;;;;;;;12.61;100.00;102388.53;5093027;28;20398;-44
2023/06/01 05:32:17;;;;;;;21.63;10.02;;;;;;;12.62;100.00;102384.84;5077761;28;20024;-46
2023/06/01 05:34:42;;;;;;;25.80;10.60;;;;;;;12.71;100.00;102383.88;5071816;28;20035;-50
2023/06/01 05:37:08;;;;;;;26.52;10.82;;;;;;;12.71;100.00;102384.72;5078725;28;20028;-45
2023/06/01 05:39:33;;;;;;;24.38;10.40;;;;;;;12.68;100.00;102381.50;5078866;28;20114;-46
2023/06/01 05:41:59;;;;;;;26.35;11.18;;;;;;;12.65;100.00;102389.94;5079198;28;20024;-45
2023/06/01 05:44:24;;;;;;;27.83;12.00;;;;;;;12.58;100.00;102383.47;5070525;28;20051;-45
2023/06/01 05:46:52;;;;;;;27.08;11.60;;;;;;;12.55;100.00;102386.47;5065088;28;20032;-45
2023/06/01 05:49:18;;;;;;;23.30;11.32;;;;;;;12.54;100.00;102387.50;5081389;28;20024;-47
2023/06/01 05:51:46;;;;;;;24.60;11.82;;;;;;;12.57;100.00;102384.47;5053461;28;20552;-45
2023/06/01 05:54:12;;;;;;;29.43;11.93;;;;;;;12.68;100.00;102389.59;5071557;28;20044;-45
2023/06/01 05:56:40;;;;;;;29.27;12.00;;;;;;;12.79;100.00;102385.78;5071481;28;20044;-48
2023/06/01 05:59:06;;;;;;;20.97;11.97;;;;;;;12.91;100.00;102379.13;5072149;28;20033;-46
2023/06/01 06:01:31;;;;;;;24.25;11.68;;;;;;;13.06;100.00;102382.06;5070268;28;20345;-47
2023/06/01 06:03:57;;;;;;;24.00;11.45;;;;;;;13.16;100.00;102388.19;5069655;28;20035;-46
2023/06/01 06:06:23;;;;;;;23.92;10.88;;;;;;;13.26;100.00;102383.56;5071078;28;20029;-46
2023/06/01 06:08:49;;;;;;;22.13;11.45;;;;;;;13.35;100.00;102379.91;5072228;28;20040;-47
2023/06/01 06:11:14;;;;;;;23.90;11.23;;;;;;;13.37;100.00;102380.56;5088749;28;20722;-48
2023/06/01 06:13:40;;;;;;;26.63;10.70;;;;;;;13.42;100.00;102384.66;5089092;28;20035;-46
2023/06/01 06:16:05;;;;;;;29.95;11.07;;;;;;;13.37;100.00;102385.13;5083290;28;20071;-49
2023/06/01 06:18:30;;;;;;;23.52;10.55;;;;;;;13.33;100.00;102384.63;5086872;28;20036;-45
2023/06/01 06:20:56;;;;;;;25.58;10.75;;;;;;;13.26;100.00;102378.16;5087017;28;20024;-48
2023/06/01 06:23:22;;;;;;;20.15;9.93;;;;;;;13.26;100.00;102377.28;5090674;28;20087;-47
2023/06/01 06:25:48;;;;;;;24.45;10.15;;;;;;;13.30;100.00;102379.53;5089744;28;20028;-44
2023/06/01 06:28:14;;;;;;;20.63;9.65;;;;;;;13.35;100.00;102379.06;5090946;28;20035;-47
2023/06/01 06:30:40;;;;;;;25.70;10.75;;;;;;;13.22;100.00;102373.19;5091139;28;20035;-44
2023/06/01 06:33:05;;;;;;;23.92;11.07;;;;;;;13.16;100.00;102377.38;5090799;28;20024;-46
2023/06/01 06:35:31;;;;;;;26.92;10.05;;;;;;;13.13;100.00;102366.91;5081793;28;20083;-47
2023/06/01 06:37:57;;;;;;;25.65;10.27;;;;;;;13.23;100.00;102370.34;5076366;28;20079;-46
2023/06/01 06:40:22;;;;;;;20.98;9.13;;;;;;;13.40;100.00;102376.69;5089483;28;20039;-44
2023/06/01 06:42:50;;;;;;;25.10;8.50;;;;;;;13.53;100.00;102378.94;5089724;28;20024;-46
2023/06/01 06:45:15;;;;;;;16.52;7.93;;;;;;;13.62;100.00;102383.38;5076231;28;20487;-45
2023/06/01 06:47:41;;;;;;;19.58;8.38;;;;;;;13.89;100.00;102384.13;5091724;28;20043;-45
2023/06/01 06:50:07;;;;;;;17.83;8.45;;;;;;;14.14;100.00;102385.84;5088332;28;20050;-43
2023/06/01 06:52:32;;;;;;;21.83;7.95;;;;;;;14.41;100.00;102386.53;5069985;28;20036;-45
2023/06/01 06:54:58;;;;;;;21.13;7.93;;;;;;;14.66;100.00;102388.22;5081235;28;20048;-46
2023/06/01 06:57:23;;;;;;;22.33;7.45;;;;;;;14.61;100.00;102378.91;5081452;28;20076;-46
2023/06/01 06:59:49;;;;;;;17.13;6.72;;;;;;;14.84;100.00;102384.47;5082498;28;20028;-49
2023/06/01 07:02:14;;;;;;;22.20;7.53;;;;;;;15.18;100.00;102381.50;5073672;28;20047;-46
2023/06/01 07:04:40;;;;;;;17.13;6.95;;;;;;;15.46;100.00;102391.94;5070382;28;20471;-48
2023/06/01 07:07:06;;;;;;;14.10;6.65;;;;;;;15.61;100.00;102386.56;5071544;28;20032;-47
2023/06/01 07:09:32;;;;;;;15.05;7.13;;;;;;;15.50;100.00;102394.09;5071597;28;20504;-47
2023/06/01 07:11:58;;;;;;;21.42;6.63;;;;;;;15.96;100.00;102391.50;5087994;28;20057;-46
2023/06/01 07:14:23;;;;;;;15.95;6.88;;;;;;;17.01;100.00;102392.66;5088628;28;20091;-46
2023/06/01 07:16:48;;;;;;;15.82;6.22;;;;;;;17.46;100.00;102382.63;5072222;28;20051;-45
2023/06/01 07:19:14;;;;;;;16.27;6.38;;;;;;;17.40;100.00;102386.06;5069888;28;20077;-47
2023/06/01 07:21:40;;;;;;;19.48;6.70;;;;;;;17.10;100.00;102389.66;5070051;28;20119;-45
2023/06/01 07:24:05;;;;;;;16.52;6.10;;;;;;;16.79;100.00;102387.09;5070024;28;20055;-47
2023/06/01 07:26:31;;;;;;;18.15;6.57;;;;;;;16.60;100.00;102387.59;5070397;28;20054;-50
2023/06/01 07:28:57;;;;;;;17.85;6.38;;;;;;;16.39;100.00;102380.97;5070188;28;20382;-46
2023/06/01 07:31:23;;;;;;;17.83;6.43;;;;;;;16.76;100.00;102384.72;5087156;28;20039;-44
2023/06/01 07:33:48;;;;;;;14.82;6.45;;;;;;;16.85;100.00;102397.25;5088435;28;20089;-49
2023/06/01 07:36:16;;;;;;;13.50;5.90;;;;;;;16.91;100.00;102397.53;5072314;28;20421;-46
2023/06/01 07:38:42;;;;;;;15.35;6.47;;;;;;;17.16;100.00;102393.50;5078681;28;20039;-45
2023/06/01 07:41:10;;;;;;;11.45;5.57;;;;;;;18.46;100.00;102390.00;5086146;28;20024;-47
2023/06/01 07:43:37;;;;;;;15.55;5.45;;;;;;;20.35;97.49;102395.09;5084639;28;20032;-47
2023/06/01 07:46:02;;;;;;;14.02;5.90;;;;;;;20.93;87.15;102391.75;5088507;28;20055;-45
2023/06/01 07:48:27;;;;;;;8.70;5.10;;;;;;;20.57;88.78;102387.59;5086248;28;20471;-48
2023/06/01 07:50:53;;;;;;;12.75;5.97;;;;;;;20.58;90.26;102389.25;5081199;28;20024;-46
2023/06/01 07:53:18;;;;;;;12.68;5.35;;;;;;;21.10;87.06;102383.94;5087164;28;20028;-46
2023/06/01 07:55:44;;;;;;;13.60;5.10;;;;;;;21.76;83.51;102388.31;5085765;28;20482;-44
2023/06/01 07:58:09;;;;;;;13.82;5.70;;;;;;;21.68;82.01;102383.94;5088003;28;20143;-46
2023/06/01 08:00:35;;;;;;;11.68;4.97;;;;;;;21.64;83.01;102383.53;5085443;28;20082;-48
2023/06/01 08:03:06;;;;;;;13.52;5.30;;;;;;;22.27;81.16;102390.13;5088042;28;20496;-47
2023/06/01 08:05:34;;;;;;;11.18;5.07;;;;;;;22.83;76.67;102391.97;5087400;28;20028;-46
2023/06/01 08:07:59;;;;;;;14.38;5.07;;;;;;;22.21;75.28;102394.59;5089581;28;20678;-45
2023/06/01 08:10:24;;;;;;;11.65;5.70;;;;;;;21.54;80.25;102394.13;5091799;28;20024;-45
2023/06/01 08:12:50;;;;;;;10.63;4.90;;;;;;;21.01;82.94;102386.03;5077020;28;20017;-45
2023/06/01 08:15:15;;;;;;;16.13;5.63;;;;;;;20.61;83.74;102383.34;5086167;28;20040;-46
2023/06/01 08:17:41;;;;;;;15.65;5.60;;;;;;;20.49;87.11;102379.56;5091697;28;20508;-48
2023/06/01 08:20:20;;;;;;;11.85;5.32;;;;;;;21.02;83.55;102385.84;5085836;28;20047;-47
2023/06/01 08:22:46;;;;;;;16.80;5.10;;;;;;;21.27;83.58;102371.44;5091938;28;20027;-47
2023/06/01 08:25:12;;;;;;;12.00;5.18;;;;;;;21.84;81.10;102379.84;5087007;28;20044;-47
2023/06/01 08:27:38;;;;;;;13.68;4.57;;;;;;;22.25;81.10;102378.53;5091620;28;20032;-46
2023/06/01 08:30:03;;;;;;;13.07;4.72;;;;;;;22.61;76.82;102385.22;5089829;28;20408;-46
2023/06/01 08:32:29;;;;;;;9.35;4.45;;;;;;;22.65;74.99;102380.97;5091633;28;20489;-45
2023/06/01 08:34:55;;;;;;;17.77;5.43;;;;;;;22.82;77.38;102376.56;5090195;28;20457;-46
2023/06/01 08:37:20;;;;;;;15.82;5.53;;;;;;;23.93;71.03;102382.03;5089292;28;20029;-46
2023/06/01 08:39:46;;;;;;;9.45;4.72;;;;;;;24.56;67.20;102391.63;5090561;28;20404;-47
2023/06/01 08:42:21;;;;;;;14.23;5.00;;;;;;;24.59;65.83;102389.22;5088893;28;20024;-47
2023/06/01 08:44:46;;;;;;;10.43;4.90;;;;;;;24.90;64.49;102384.47;5090763;28;20020;-48
2023/06/01 08:47:12;;;;;;;8.77;4.40;;;;;;;25.04;62.97;102380.38;5087519;28;20035;-48
2023/06/01 08:49:40;;;;;;;10.82;4.70;;;;;;;25.10;61.40;102390.44;5074169;28;20020;-46
2023/06/01 08:52:14;;;;;;;10.30;4.43;;;;;;;24.96;60.49;102378.84;5081022;28;20032;-47
2023/06/01 08:54:39;;;;;;;10.73;4.88;;;;;;;24.95;61.67;102381.81;5092440;28;20118;-48
2023/06/01 08:57:07;;;;;;;11.50;5.00;;;;;;;24.92;60.16;102374.03;5084716;28;20060;-46
2023/06/01 08:59:34;;;;;;;13.00;4.80;;;;;;;24.89;61.51;102374.53;5072243;28;20086;-45
2023/06/01 09:01:59;;;;;;;8.50;4.63;;;;;;;24.68;61.90;102376.81;5083261;28;20371;-48
2023/06/01 09:04:26;;;;;;;11.88;4.85;;;;;;;24.79;60.70;102366.03;5082725;28;20035;-47
2023/06/01 09:06:52;;;;;;;11.10;4.93;;;;;;;24.52;62.24;102367.34;5085617;28;20035;-49
2023/06/01 09:09:17;;;;;;;11.68;4.70;;;;;;;23.95;65.10;102357.88;5087934;28;20016;-49
2023/06/01 09:11:44;;;;;;;11.05;4.60;;;;;;;24.04;65.88;102362.81;5085649;28;20126;-48
2023/06/01 09:14:23;;;;;;;12.30;4.90;;;;;;;24.00;64.13;102358.84;5082985;28;20193;-46
2023/06/01 09:16:50;;;;;;;11.27;4.25;;;;;;;23.37;67.67;102354.63;5087040;28;20028;-48
2023/06/01 09:19:18;;;;;;;11.90;5.55;;;;;;;23.84;68.44;102357.59;5090445;28;20827;-47
2023/06/01 09:21:57;;;;;;;12.07;4.78;;;;;;;24.06;67.53;102357.06;5079268;28;20433;-46
2023/06/01 09:24:23;;;;;;;13.15;4.60;;;;;;;24.78;63.08;102347.81;5069118;28;20028;-45
2023/06/01 09:26:49;;;;;;;15.30;5.25;;;;;;;24.74;64.09;102341.97;5075972;28;20055;-48
2023/06/01 09:29:14;;;;;;;11.85;4.70;;;;;;;25.46;60.93;102349.03;5089454;28;20362;-48
2023/06/01 09:31:44;;;;;;;11.75;4.50;;;;;;;26.02;58.06;102345.44;5088074;28;20033;-46
2023/06/01 09:34:12;;;;;;;13.50;4.50;;;;;;;25.60;59.02;102342.16;5090553;28;20444;-48
2023/06/01 09:36:37;;;;;;;9.25;4.22;;;;;;;25.62;60.13;102340.81;5089276;28;20034;-47
2023/06/01 09:39:05;;;;;;;11.13;3.88;;;;;;;26.21;57.94;102345.19;5087242;28;20690;-46
2023/06/01 09:41:54;;;;;;;12.98;4.32;;;;;;;26.36;56.19;102352.88;5090426;28;20032;-47
2023/06/01 09:44:40;;;;;;;10.45;3.72;;;;;;;25.84;57.08;102356.69;5086326;28;20127;-47
2023/06/01 09:47:09;;;;;;;8.05;3.67;;;;;;;26.13;55.74;102348.38;5090099;28;20408;-46
2023/06/01 09:49:38;;;;;;;9.35;3.42;;;;;;;26.30;56.72;102349.19;5085919;28;20032;-46
2023/06/01 09:52:03;;;;;;;8.02;4.10;;;;;;;25.11;59.25;102342.50;5090533;28;20027;-47
2023/06/01 09:54:30;;;;;;;7.25;3.75;;;;;;;25.02;59.19;102338.47;5088230;28;20034;-48
2023/06/01 09:56:56;;;;;;;9.70;4.00;;;;;;;25.16;59.55;102342.63;5088473;28;20055;-47
2023/06/01 09:59:23;;;;;;;11.07;4.20;;;;;;;25.59;58.04;102349.59;5087193;28;20027;-48
2023/06/01 10:01:53;;;;;;;7.38;3.63;;;;;;;25.74;57.35;102351.78;5090014;28;20039;-46
2023/06/01 10:04:25;;;;;;;7.70;3.85;;;;;;;25.53;57.93;102339.53;5085489;28;20100;-49
2023/06/01 10:06:51;;;;;;;8.98;3.70;;;;;;;25.11;58.84;102336.16;5088338;28;20040;-45
2023/06/01 10:09:19;;;;;;;10.65;3.88;;;;;;;25.50;57.72;102329.00;5089841;28;20040;-44
2023/06/01 10:11:48;;;;;;;9.13;3.55;;;;;;;25.69;56.77;102329.63;5090014;28;20497;-49
2023/06/01 10:14:17;;;;;;;11.80;3.83;;;;;;;26.09;56.75;102341.66;5091557;28;20024;-48
2023/06/01 10:16:43;;;;;;;16.00;3.60;;;;;;;25.32;59.00;102332.78;5087143;28;20389;-47
2023/06/01 10:19:10;;;;;;;13.75;3.35;;;;;;;26.25;56.05;102352.72;5086072;28;20032;-46
2023/06/01 10:21:36;;;;;;;8.68;3.10;;;;;;;26.12;55.49;102343.91;5083393;28;20043;-45
2023/06/01 10:24:02;;;;;;;7.63;3.55;;;;;;;25.74;57.77;102328.88;5090646;28;20028;-44
2023/06/01 10:26:28;;;;;;;10.88;3.22;;;;;;;25.86;56.35;102337.97;5070639;28;20103;-45
2023/06/01 10:28:55;;;;;;;14.93;3.63;;;;;;;25.26;58.41;102333.75;5066966;28;20052;-46
2023/06/01 10:31:35;;;;;;;12.02;3.20;;;;;;;25.58;56.68;102336.88;5072644;28;20533;-47
2023/06/01 10:34:01;;;;;;;9.77;3.00;;;;;;;25.74;55.77;102334.41;5090188;28;20179;-44
2023/06/01 10:36:51;;;;;;;10.85;3.50;;;;;;;25.55;57.26;102342.88;5088047;28;20028;-45
2023/06/01 10:39:26;;;;;;;12.38;2.70;;;;;;;25.40;56.65;102337.06;5089458;28;20022;-46
2023/06/01 10:41:52;;;;;;;10.40;3.03;;;;;;;25.48;58.21;102325.63;5089012;28;20035;-46
2023/06/01 10:44:39;;;;;;;10.50;3.55;;;;;;;25.81;55.93;102332.34;5090517;28;20054;-47
2023/06/01 10:47:24;;;;;;;;;;;;;;;25.36;55.52;102333.13;5091228;28;20029;-49
2023/06/01 10:49:49;;;;;;;11.15;3.40;;;;;;;25.31;57.87;102335.78;5091017;28;20274;-46
2023/06/01 10:52:30;;;;;;;10.60;3.17;;;;;;;25.22;58.56;102337.25;5090826;28;20034;-45
2023/06/01 10:55:15;;;;;;;9.90;3.10;;;;;;;25.08;56.99;102340.25;5091179;28;20440;-46
2023/06/01 10:57:44;;;;;;;4.95;3.00;;;;;;;25.27;56.73;102335.41;5091193;28;20522;-46
2023/06/01 11:00:10;;;;;;;8.70;3.20;;;;;;;25.11;56.14;102331.47;5089892;28;20028;-48
2023/06/01 11:02:56;;;;;;;7.07;2.65;;;;;;;25.05;58.60;102340.72;5081607;28;20479;-48
2023/06/01 11:05:34;;;;;;;6.82;2.83;;;;;;;25.27;56.21;102340.09;5069423;28;20483;-47
2023/06/01 11:07:59;;;;;;;9.82;3.05;;;;;;;25.47;56.37;102340.50;5085690;28;20500;-46
2023/06/01 11:10:56;;;;;;;9.90;2.75;;;;;;;25.30;56.90;102336.84;5089263;28;20040;-46